sensor_id;sensor_type;location;lat;lon;timestamp;temperature;humidity
21171;DHT22;10743;52.160;20.910;2023-09-18T00:00:47;32.20;43.10
21171;DHT22;10743;52.160;20.910;2023-09-18T00:03:18;32.20;43.10
21171;DHT22;10743;52.160;20.910;2023-09-18T00:05:47;32.20;43.10
21171;DHT22;10743;52.160;20.910;2023-09-18T00:08:15;32.20;43.10
21171;DHT22;10743;52.160;20.910;2023-09-18T00:10:53;32.20;43.10
21171;DHT22;10743;52.160;20.910;2023-09-18T00:13:21;32.10;43.00
21171;DHT22;10743;52.160;20.910;2023-09-18T00:15:53;32.10;43.10
21171;DHT22;10743;52.160;20.910;2023-09-18T00:18:21;32.10;43.10
21171;DHT22;10743;52.160;20.910;2023-09-18T00:20:49;32.10;43.10
21171;DHT22;10743;52.160;20.910;2023-09-18T00:23:18;32.10;43.20
21171;DHT22;10743;52.160;20.910;2023-09-18T00:25:46;32.00;43.10
21171;DHT22;10743;52.160;20.910;2023-09-18T00:28:13;32.00;43.10
21171;DHT22;10743;52.160;20.910;2023-09-18T00:30:46;32.00;43.10
21171;DHT22;10743;52.160;20.910;2023-09-18T00:33:15;31.90;43.10
21171;DHT22;10743;52.160;20.910;2023-09-18T00:35:47;31.90;43.10
21171;DHT22;10743;52.160;20.910;2023-09-18T00:38:16;31.90;43.10
21171;DHT22;10743;52.160;20.910;2023-09-18T00:40:44;31.90;43.20
21171;DHT22;10743;52.160;20.910;2023-09-18T00:43:11;31.80;43.10
21171;DHT22;10743;52.160;20.910;2023-09-18T00:45:45;31.80;43.10
21171;DHT22;10743;52.160;20.910;2023-09-18T00:48:16;31.70;43.10
21171;DHT22;10743;52.160;20.910;2023-09-18T00:50:44;31.70;43.20
21171;DHT22;10743;52.160;20.910;2023-09-18T00:53:20;31.70;43.30
21171;DHT22;10743;52.160;20.910;2023-09-18T00:55:50;31.60;43.30
21171;DHT22;10743;52.160;20.910;2023-09-18T00:58:22;31.60;43.40
21171;DHT22;10743;52.160;20.910;2023-09-18T01:00:49;31.60;43.50
21171;DHT22;10743;52.160;20.910;2023-09-18T01:03:21;31.60;43.70
21171;DHT22;10743;52.160;20.910;2023-09-18T01:05:49;31.50;43.60
21171;DHT22;10743;52.160;20.910;2023-09-18T01:08:17;31.50;43.60
21171;DHT22;10743;52.160;20.910;2023-09-18T01:11:02;31.50;43.50
21171;DHT22;10743;52.160;20.910;2023-09-18T01:13:47;31.50;43.50
21171;DHT22;10743;52.160;20.910;2023-09-18T01:16:36;31.50;43.50
21171;DHT22;10743;52.160;20.910;2023-09-18T01:19:08;31.50;43.50
21171;DHT22;10743;52.160;20.910;2023-09-18T01:21:35;31.40;43.50
21171;DHT22;10743;52.160;20.910;2023-09-18T01:24:02;31.40;43.50
21171;DHT22;10743;52.160;20.910;2023-09-18T01:26:29;31.40;43.70
21171;DHT22;10743;52.160;20.910;2023-09-18T01:28:57;31.40;43.80
21171;DHT22;10743;52.160;20.910;2023-09-18T01:31:24;31.30;43.90
21171;DHT22;10743;52.160;20.910;2023-09-18T01:33:53;31.30;43.90
21171;DHT22;10743;52.160;20.910;2023-09-18T01:36:21;31.30;44.00
21171;DHT22;10743;52.160;20.910;2023-09-18T01:38:50;31.30;44.00
21171;DHT22;10743;52.160;20.910;2023-09-18T01:41:18;31.30;44.00
21171;DHT22;10743;52.160;20.910;2023-09-18T01:43:45;31.30;44.10
21171;DHT22;10743;52.160;20.910;2023-09-18T01:46:13;31.30;44.10
21171;DHT22;10743;52.160;20.910;2023-09-18T01:48:46;31.30;44.10
21171;DHT22;10743;52.160;20.910;2023-09-18T01:51:15;31.30;44.00
21171;DHT22;10743;52.160;20.910;2023-09-18T01:53:43;31.20;44.00
21171;DHT22;10743;52.160;20.910;2023-09-18T01:56:10;31.20;44.10
21171;DHT22;10743;52.160;20.910;2023-09-18T01:58:38;31.20;44.30
21171;DHT22;10743;52.160;20.910;2023-09-18T02:01:05;31.20;44.30
21171;DHT22;10743;52.160;20.910;2023-09-18T02:03:33;31.30;44.50
21171;DHT22;10743;52.160;20.910;2023-09-18T02:06:20;31.20;44.40
21171;DHT22;10743;52.160;20.910;2023-09-18T02:08:47;31.20;44.50
21171;DHT22;10743;52.160;20.910;2023-09-18T02:11:14;31.20;44.60
21171;DHT22;10743;52.160;20.910;2023-09-18T02:13:41;31.20;44.70
21171;DHT22;10743;52.160;20.910;2023-09-18T02:16:09;31.20;44.80
21171;DHT22;10743;52.160;20.910;2023-09-18T02:18:36;31.30;44.90
21171;DHT22;10743;52.160;20.910;2023-09-18T02:21:03;31.30;45.00
21171;DHT22;10743;52.160;20.910;2023-09-18T02:23:30;31.30;45.00
21171;DHT22;10743;52.160;20.910;2023-09-18T02:25:58;31.30;45.00
21171;DHT22;10743;52.160;20.910;2023-09-18T02:28:25;31.30;45.00
21171;DHT22;10743;52.160;20.910;2023-09-18T02:30:52;31.30;45.00
21171;DHT22;10743;52.160;20.910;2023-09-18T02:33:19;31.40;45.00
21171;DHT22;10743;52.160;20.910;2023-09-18T02:35:47;31.40;45.00
21171;DHT22;10743;52.160;20.910;2023-09-18T02:38:14;31.40;45.00
21171;DHT22;10743;52.160;20.910;2023-09-18T02:40:41;31.40;45.00
21171;DHT22;10743;52.160;20.910;2023-09-18T02:43:08;31.40;45.10
21171;DHT22;10743;52.160;20.910;2023-09-18T02:45:35;31.40;45.10
21171;DHT22;10743;52.160;20.910;2023-09-18T02:48:03;31.40;45.10
21171;DHT22;10743;52.160;20.910;2023-09-18T02:50:30;31.40;45.10
21171;DHT22;10743;52.160;20.910;2023-09-18T02:52:57;31.50;45.20
21171;DHT22;10743;52.160;20.910;2023-09-18T02:55:26;31.50;45.30
21171;DHT22;10743;52.160;20.910;2023-09-18T02:57:53;31.50;45.30
21171;DHT22;10743;52.160;20.910;2023-09-18T03:00:20;31.50;45.30
21171;DHT22;10743;52.160;20.910;2023-09-18T03:03:08;31.50;45.40
21171;DHT22;10743;52.160;20.910;2023-09-18T03:05:35;31.50;45.30
21171;DHT22;10743;52.160;20.910;2023-09-18T03:08:03;31.50;45.40
21171;DHT22;10743;52.160;20.910;2023-09-18T03:10:35;31.50;45.40
21171;DHT22;10743;52.160;20.910;2023-09-18T03:13:04;31.50;45.30
21171;DHT22;10743;52.160;20.910;2023-09-18T03:15:31;31.50;45.40
21171;DHT22;10743;52.160;20.910;2023-09-18T03:18:00;31.50;45.40
21171;DHT22;10743;52.160;20.910;2023-09-18T03:20:29;31.50;45.40
21171;DHT22;10743;52.160;20.910;2023-09-18T03:23:01;31.50;45.30
21171;DHT22;10743;52.160;20.910;2023-09-18T03:25:29;31.50;45.30
21171;DHT22;10743;52.160;20.910;2023-09-18T03:28:15;31.50;45.30
21171;DHT22;10743;52.160;20.910;2023-09-18T03:30:42;31.50;45.30
21171;DHT22;10743;52.160;20.910;2023-09-18T03:33:09;31.50;45.30
21171;DHT22;10743;52.160;20.910;2023-09-18T03:35:47;31.50;45.30
21171;DHT22;10743;52.160;20.910;2023-09-18T03:38:19;31.50;45.30
21171;DHT22;10743;52.160;20.910;2023-09-18T03:40:48;31.50;45.20
21171;DHT22;10743;52.160;20.910;2023-09-18T03:43:15;31.50;45.20
21171;DHT22;10743;52.160;20.910;2023-09-18T03:45:42;31.50;45.30
21171;DHT22;10743;52.160;20.910;2023-09-18T03:48:10;31.50;45.30
21171;DHT22;10743;52.160;20.910;2023-09-18T03:50:38;31.50;45.20
21171;DHT22;10743;52.160;20.910;2023-09-18T03:53:07;31.50;45.20
21171;DHT22;10743;52.160;20.910;2023-09-18T03:55:34;31.50;45.30
21171;DHT22;10743;52.160;20.910;2023-09-18T03:58:01;31.50;45.30
21171;DHT22;10743;52.160;20.910;2023-09-18T04:00:30;31.50;45.30
21171;DHT22;10743;52.160;20.910;2023-09-18T04:02:57;31.50;45.30
21171;DHT22;10743;52.160;20.910;2023-09-18T04:05:26;31.50;45.30
21171;DHT22;10743;52.160;20.910;2023-09-18T04:07:55;31.50;45.60
21171;DHT22;10743;52.160;20.910;2023-09-18T04:10:22;31.50;45.30
21171;DHT22;10743;52.160;20.910;2023-09-18T04:12:51;31.50;45.30
21171;DHT22;10743;52.160;20.910;2023-09-18T04:15:19;31.50;45.30
21171;DHT22;10743;52.160;20.910;2023-09-18T04:17:47;31.50;45.30
21171;DHT22;10743;52.160;20.910;2023-09-18T04:20:15;31.50;45.30
21171;DHT22;10743;52.160;20.910;2023-09-18T04:22:45;31.50;45.30
21171;DHT22;10743;52.160;20.910;2023-09-18T04:25:17;31.50;45.30
21171;DHT22;10743;52.160;20.910;2023-09-18T04:27:46;31.50;45.30
21171;DHT22;10743;52.160;20.910;2023-09-18T04:30:17;31.50;45.30
21171;DHT22;10743;52.160;20.910;2023-09-18T04:32:47;31.60;45.30
21171;DHT22;10743;52.160;20.910;2023-09-18T04:35:14;31.60;45.30
21171;DHT22;10743;52.160;20.910;2023-09-18T04:37:42;31.60;45.30
21171;DHT22;10743;52.160;20.910;2023-09-18T04:40:10;31.60;45.30
21171;DHT22;10743;52.160;20.910;2023-09-18T04:42:39;31.60;45.20
21171;DHT22;10743;52.160;20.910;2023-09-18T04:45:07;31.60;45.30
21171;DHT22;10743;52.160;20.910;2023-09-18T04:47:36;31.60;45.20
21171;DHT22;10743;52.160;20.910;2023-09-18T04:50:04;31.60;45.20
21171;DHT22;10743;52.160;20.910;2023-09-18T04:52:37;31.50;45.10
21171;DHT22;10743;52.160;20.910;2023-09-18T04:55:06;31.60;45.20
21171;DHT22;10743;52.160;20.910;2023-09-18T04:57:33;31.60;45.30
21171;DHT22;10743;52.160;20.910;2023-09-18T05:00:01;31.60;45.20
21171;DHT22;10743;52.160;20.910;2023-09-18T05:02:43;31.60;45.20
21171;DHT22;10743;52.160;20.910;2023-09-18T05:05:11;31.60;45.30
21171;DHT22;10743;52.160;20.910;2023-09-18T05:07:39;31.60;45.30
21171;DHT22;10743;52.160;20.910;2023-09-18T05:10:06;31.60;45.30
21171;DHT22;10743;52.160;20.910;2023-09-18T05:12:33;31.60;45.20
21171;DHT22;10743;52.160;20.910;2023-09-18T05:15:01;31.60;45.20
21171;DHT22;10743;52.160;20.910;2023-09-18T05:17:45;31.60;45.20
21171;DHT22;10743;52.160;20.910;2023-09-18T05:20:16;31.60;45.30
21171;DHT22;10743;52.160;20.910;2023-09-18T05:22:44;31.60;45.30
21171;DHT22;10743;52.160;20.910;2023-09-18T05:25:12;31.60;45.30
21171;DHT22;10743;52.160;20.910;2023-09-18T05:27:42;31.60;45.20
21171;DHT22;10743;52.160;20.910;2023-09-18T05:30:19;31.70;45.30
21171;DHT22;10743;52.160;20.910;2023-09-18T05:32:49;31.70;45.30
21171;DHT22;10743;52.160;20.910;2023-09-18T05:35:17;31.70;45.30
21171;DHT22;10743;52.160;20.910;2023-09-18T05:37:44;31.70;45.30
21171;DHT22;10743;52.160;20.910;2023-09-18T05:40:13;31.70;45.30
21171;DHT22;10743;52.160;20.910;2023-09-18T05:42:42;31.70;45.30
21171;DHT22;10743;52.160;20.910;2023-09-18T05:45:13;31.80;45.30
21171;DHT22;10743;52.160;20.910;2023-09-18T05:47:42;31.80;45.30
21171;DHT22;10743;52.160;20.910;2023-09-18T05:50:11;31.80;45.40
21171;DHT22;10743;52.160;20.910;2023-09-18T05:52:46;31.80;45.30
21171;DHT22;10743;52.160;20.910;2023-09-18T05:55:14;31.80;45.30
21171;DHT22;10743;52.160;20.910;2023-09-18T05:57:42;31.90;45.30
21171;DHT22;10743;52.160;20.910;2023-09-18T06:00:09;31.80;45.20
21171;DHT22;10743;52.160;20.910;2023-09-18T06:02:41;31.90;45.30
21171;DHT22;10743;52.160;20.910;2023-09-18T06:05:08;31.90;45.30
21171;DHT22;10743;52.160;20.910;2023-09-18T06:07:38;31.90;45.30
21171;DHT22;10743;52.160;20.910;2023-09-18T06:10:06;31.90;45.30
21171;DHT22;10743;52.160;20.910;2023-09-18T06:12:34;31.90;45.30
21171;DHT22;10743;52.160;20.910;2023-09-18T06:15:01;32.00;45.50
21171;DHT22;10743;52.160;20.910;2023-09-18T06:17:28;32.00;45.50
21171;DHT22;10743;52.160;20.910;2023-09-18T06:19:55;32.00;45.50
21171;DHT22;10743;52.160;20.910;2023-09-18T06:22:22;32.00;45.50
21171;DHT22;10743;52.160;20.910;2023-09-18T06:24:49;32.10;45.70
21171;DHT22;10743;52.160;20.910;2023-09-18T06:27:16;32.10;45.70
21171;DHT22;10743;52.160;20.910;2023-09-18T06:29:45;32.10;46.40
21171;DHT22;10743;52.160;20.910;2023-09-18T06:32:12;32.20;45.70
21171;DHT22;10743;52.160;20.910;2023-09-18T06:34:40;32.20;45.70
21171;DHT22;10743;52.160;20.910;2023-09-18T06:37:10;32.20;45.70
21171;DHT22;10743;52.160;20.910;2023-09-18T06:39:39;32.30;45.80
21171;DHT22;10743;52.160;20.910;2023-09-18T06:42:07;32.30;45.70
21171;DHT22;10743;52.160;20.910;2023-09-18T06:44:36;32.40;45.70
21171;DHT22;10743;52.160;20.910;2023-09-18T06:47:03;32.40;45.80
21171;DHT22;10743;52.160;20.910;2023-09-18T06:49:30;32.40;45.80
21171;DHT22;10743;52.160;20.910;2023-09-18T06:51:57;32.50;45.90
21171;DHT22;10743;52.160;20.910;2023-09-18T06:54:25;32.60;46.00
21171;DHT22;10743;52.160;20.910;2023-09-18T06:56:52;32.60;45.90
21171;DHT22;10743;52.160;20.910;2023-09-18T06:59:19;32.70;45.80
21171;DHT22;10743;52.160;20.910;2023-09-18T07:01:46;32.80;45.80
21171;DHT22;10743;52.160;20.910;2023-09-18T07:04:13;32.80;45.90
21171;DHT22;10743;52.160;20.910;2023-09-18T07:06:40;32.90;45.80
21171;DHT22;10743;52.160;20.910;2023-09-18T07:09:07;33.00;45.70
21171;DHT22;10743;52.160;20.910;2023-09-18T07:11:39;33.00;45.80
21171;DHT22;10743;52.160;20.910;2023-09-18T07:14:06;33.10;45.70
21171;DHT22;10743;52.160;20.910;2023-09-18T07:16:34;33.20;45.90
21171;DHT22;10743;52.160;20.910;2023-09-18T07:19:01;33.30;45.60
21171;DHT22;10743;52.160;20.910;2023-09-18T07:21:31;33.40;45.90
21171;DHT22;10743;52.160;20.910;2023-09-18T07:23:59;33.50;45.60
21171;DHT22;10743;52.160;20.910;2023-09-18T07:26:26;33.50;45.50
21171;DHT22;10743;52.160;20.910;2023-09-18T07:28:53;33.60;45.40
21171;DHT22;10743;52.160;20.910;2023-09-18T07:31:21;33.60;45.20
21171;DHT22;10743;52.160;20.910;2023-09-18T07:33:48;33.70;45.20
21171;DHT22;10743;52.160;20.910;2023-09-18T07:36:15;33.80;45.30
21171;DHT22;10743;52.160;20.910;2023-09-18T07:38:42;33.90;45.30
21171;DHT22;10743;52.160;20.910;2023-09-18T07:41:10;33.90;45.30
21171;DHT22;10743;52.160;20.910;2023-09-18T07:43:37;34.00;45.40
21171;DHT22;10743;52.160;20.910;2023-09-18T07:46:06;34.10;45.10
21171;DHT22;10743;52.160;20.910;2023-09-18T07:48:33;34.20;45.00
21171;DHT22;10743;52.160;20.910;2023-09-18T07:51:01;34.30;44.60
21171;DHT22;10743;52.160;20.910;2023-09-18T07:53:29;34.40;44.40
21171;DHT22;10743;52.160;20.910;2023-09-18T07:55:57;34.50;44.60
21171;DHT22;10743;52.160;20.910;2023-09-18T07:58:26;34.60;44.50
21171;DHT22;10743;52.160;20.910;2023-09-18T08:00:57;34.70;44.10
21171;DHT22;10743;52.160;20.910;2023-09-18T08:03:26;34.70;44.10
21171;DHT22;10743;52.160;20.910;2023-09-18T08:05:53;34.80;44.10
21171;DHT22;10743;52.160;20.910;2023-09-18T08:08:21;34.80;43.90
21171;DHT22;10743;52.160;20.910;2023-09-18T08:10:51;35.00;44.20
21171;DHT22;10743;52.160;20.910;2023-09-18T08:13:18;35.00;44.10
21171;DHT22;10743;52.160;20.910;2023-09-18T08:15:46;35.10;43.80
21171;DHT22;10743;52.160;20.910;2023-09-18T08:18:14;35.20;43.50
21171;DHT22;10743;52.160;20.910;2023-09-18T08:20:42;35.20;43.40
21171;DHT22;10743;52.160;20.910;2023-09-18T08:23:10;35.40;43.30
21171;DHT22;10743;52.160;20.910;2023-09-18T08:25:38;35.40;43.60
21171;DHT22;10743;52.160;20.910;2023-09-18T08:28:07;35.50;43.50
21171;DHT22;10743;52.160;20.910;2023-09-18T08:30:35;35.60;43.40
21171;DHT22;10743;52.160;20.910;2023-09-18T08:33:06;35.70;43.50
21171;DHT22;10743;52.160;20.910;2023-09-18T08:35:33;35.70;43.40
21171;DHT22;10743;52.160;20.910;2023-09-18T08:38:00;35.80;43.10
21171;DHT22;10743;52.160;20.910;2023-09-18T08:40:27;35.90;43.10
21171;DHT22;10743;52.160;20.910;2023-09-18T08:42:56;35.90;43.10
21171;DHT22;10743;52.160;20.910;2023-09-18T08:45:31;36.00;43.10
21171;DHT22;10743;52.160;20.910;2023-09-18T08:48:02;36.10;42.90
21171;DHT22;10743;52.160;20.910;2023-09-18T08:50:30;36.20;42.60
21171;DHT22;10743;52.160;20.910;2023-09-18T08:52:58;36.30;42.50
21171;DHT22;10743;52.160;20.910;2023-09-18T08:55:26;36.30;42.30
21171;DHT22;10743;52.160;20.910;2023-09-18T08:57:53;36.40;42.40
21171;DHT22;10743;52.160;20.910;2023-09-18T09:00:20;36.50;42.20
21171;DHT22;10743;52.160;20.910;2023-09-18T09:02:48;36.50;42.20
21171;DHT22;10743;52.160;20.910;2023-09-18T09:05:22;36.60;41.80
21171;DHT22;10743;52.160;20.910;2023-09-18T09:07:50;36.70;41.60
21171;DHT22;10743;52.160;20.910;2023-09-18T09:10:18;36.80;41.00
21171;DHT22;10743;52.160;20.910;2023-09-18T09:12:54;36.80;41.10
21171;DHT22;10743;52.160;20.910;2023-09-18T09:15:28;36.90;40.70
21171;DHT22;10743;52.160;20.910;2023-09-18T09:18:04;37.00;40.40
21171;DHT22;10743;52.160;20.910;2023-09-18T09:20:33;37.10;40.20
21171;DHT22;10743;52.160;20.910;2023-09-18T09:23:04;37.10;40.20
21171;DHT22;10743;52.160;20.910;2023-09-18T09:25:33;37.20;40.30
21171;DHT22;10743;52.160;20.910;2023-09-18T09:28:03;37.20;40.20
21171;DHT22;10743;52.160;20.910;2023-09-18T09:30:34;37.30;40.00
21171;DHT22;10743;52.160;20.910;2023-09-18T09:33:04;37.40;40.20
21171;DHT22;10743;52.160;20.910;2023-09-18T09:35:37;37.50;39.90
21171;DHT22;10743;52.160;20.910;2023-09-18T09:38:09;37.50;39.70
21171;DHT22;10743;52.160;20.910;2023-09-18T09:40:39;37.60;40.50
21171;DHT22;10743;52.160;20.910;2023-09-18T09:43:12;37.70;39.60
21171;DHT22;10743;52.160;20.910;2023-09-18T09:45:42;37.70;38.50
21171;DHT22;10743;52.160;20.910;2023-09-18T09:48:12;37.80;38.50
21171;DHT22;10743;52.160;20.910;2023-09-18T09:50:47;37.80;38.70
21171;DHT22;10743;52.160;20.910;2023-09-18T09:53:16;37.90;36.90
21171;DHT22;10743;52.160;20.910;2023-09-18T09:55:44;38.00;37.20
21171;DHT22;10743;52.160;20.910;2023-09-18T09:58:12;38.10;37.10
21171;DHT22;10743;52.160;20.910;2023-09-18T10:00:51;38.10;37.30
21171;DHT22;10743;52.160;20.910;2023-09-18T10:03:21;38.20;37.10
21171;DHT22;10743;52.160;20.910;2023-09-18T10:05:51;38.20;36.80
21171;DHT22;10743;52.160;20.910;2023-09-18T10:08:26;38.30;36.40
21171;DHT22;10743;52.160;20.910;2023-09-18T10:10:56;38.30;36.60
21171;DHT22;10743;52.160;20.910;2023-09-18T10:16:18;38.50;36.60
21171;DHT22;10743;52.160;20.910;2023-09-18T10:22:20;38.50;35.90
21171;DHT22;10743;52.160;20.910;2023-09-18T10:25:14;38.60;35.40
21171;DHT22;10743;52.160;20.910;2023-09-18T10:27:47;38.70;35.70
21171;DHT22;10743;52.160;20.910;2023-09-18T10:30:16;38.70;35.30
21171;DHT22;10743;52.160;20.910;2023-09-18T10:32:46;38.80;35.40
21171;DHT22;10743;52.160;20.910;2023-09-18T10:35:15;38.80;35.70
21171;DHT22;10743;52.160;20.910;2023-09-18T10:37:42;38.90;35.30
21171;DHT22;10743;52.160;20.910;2023-09-18T10:40:11;38.90;35.00
21171;DHT22;10743;52.160;20.910;2023-09-18T10:42:40;38.90;35.20
21171;DHT22;10743;52.160;20.910;2023-09-18T10:45:10;39.00;35.00
21171;DHT22;10743;52.160;20.910;2023-09-18T10:47:40;39.00;34.70
21171;DHT22;10743;52.160;20.910;2023-09-18T10:50:23;39.10;34.80
21171;DHT22;10743;52.160;20.910;2023-09-18T10:52:52;39.10;34.90
21171;DHT22;10743;52.160;20.910;2023-09-18T10:55:21;39.20;35.50
21171;DHT22;10743;52.160;20.910;2023-09-18T10:57:57;39.30;34.50
21171;DHT22;10743;52.160;20.910;2023-09-18T11:00:26;39.40;33.50
21171;DHT22;10743;52.160;20.910;2023-09-18T11:03:13;39.40;33.80
21171;DHT22;10743;52.160;20.910;2023-09-18T11:05:45;39.50;33.90
21171;DHT22;10743;52.160;20.910;2023-09-18T11:08:34;39.50;33.30
21171;DHT22;10743;52.160;20.910;2023-09-18T11:11:07;39.60;32.80
21171;DHT22;10743;52.160;20.910;2023-09-18T11:13:40;39.60;33.30
21171;DHT22;10743;52.160;20.910;2023-09-18T11:19:10;39.80;32.50
21171;DHT22;10743;52.160;20.910;2023-09-18T11:21:39;39.80;33.30
21171;DHT22;10743;52.160;20.910;2023-09-18T11:24:21;39.90;32.20
21171;DHT22;10743;52.160;20.910;2023-09-18T11:26:51;39.90;31.90
21171;DHT22;10743;52.160;20.910;2023-09-18T11:29:22;39.90;32.00
21171;DHT22;10743;52.160;20.910;2023-09-18T11:31:52;39.90;32.10
21171;DHT22;10743;52.160;20.910;2023-09-18T11:34:28;39.90;32.10
21171;DHT22;10743;52.160;20.910;2023-09-18T11:36:58;40.00;31.70
21171;DHT22;10743;52.160;20.910;2023-09-18T11:39:39;40.00;31.60
21171;DHT22;10743;52.160;20.910;2023-09-18T11:42:08;40.00;31.40
21171;DHT22;10743;52.160;20.910;2023-09-18T11:44:37;40.00;31.30
21171;DHT22;10743;52.160;20.910;2023-09-18T11:47:10;39.90;31.40
21171;DHT22;10743;52.160;20.910;2023-09-18T11:49:53;39.90;31.40
21171;DHT22;10743;52.160;20.910;2023-09-18T11:52:24;39.90;31.30
21171;DHT22;10743;52.160;20.910;2023-09-18T11:54:53;39.90;31.30
21171;DHT22;10743;52.160;20.910;2023-09-18T11:57:22;39.80;31.30
21171;DHT22;10743;52.160;20.910;2023-09-18T11:59:49;39.80;31.80
21171;DHT22;10743;52.160;20.910;2023-09-18T12:02:31;39.80;31.10
21171;DHT22;10743;52.160;20.910;2023-09-18T12:05:16;39.80;31.60
21171;DHT22;10743;52.160;20.910;2023-09-18T12:07:47;39.80;32.00
21171;DHT22;10743;52.160;20.910;2023-09-18T12:10:15;39.80;31.20
21171;DHT22;10743;52.160;20.910;2023-09-18T12:12:44;39.80;31.70
21171;DHT22;10743;52.160;20.910;2023-09-18T12:15:16;39.80;31.60
21171;DHT22;10743;52.160;20.910;2023-09-18T12:17:44;39.80;31.40
21171;DHT22;10743;52.160;20.910;2023-09-18T12:20:17;39.90;31.30
21171;DHT22;10743;52.160;20.910;2023-09-18T12:22:49;39.80;31.10
21171;DHT22;10743;52.160;20.910;2023-09-18T12:25:20;39.90;31.50
21171;DHT22;10743;52.160;20.910;2023-09-18T12:27:52;39.90;32.00
21171;DHT22;10743;52.160;20.910;2023-09-18T12:30:21;39.90;32.00
21171;DHT22;10743;52.160;20.910;2023-09-18T12:32:50;39.90;32.00
21171;DHT22;10743;52.160;20.910;2023-09-18T12:35:18;40.00;31.50
21171;DHT22;10743;52.160;20.910;2023-09-18T12:37:46;40.00;31.60
21171;DHT22;10743;52.160;20.910;2023-09-18T12:42:50;40.00;32.20
21171;DHT22;10743;52.160;20.910;2023-09-18T12:45:18;40.00;31.80
21171;DHT22;10743;52.160;20.910;2023-09-18T12:47:45;40.10;31.70
21171;DHT22;10743;52.160;20.910;2023-09-18T12:50:13;40.10;31.00
21171;DHT22;10743;52.160;20.910;2023-09-18T12:52:41;40.00;30.80
21171;DHT22;10743;52.160;20.910;2023-09-18T12:55:08;40.10;31.00
21171;DHT22;10743;52.160;20.910;2023-09-18T12:57:47;40.00;31.30
21171;DHT22;10743;52.160;20.910;2023-09-18T13:00:18;40.00;31.70
21171;DHT22;10743;52.160;20.910;2023-09-18T13:02:48;40.00;31.70
21171;DHT22;10743;52.160;20.910;2023-09-18T13:05:23;40.00;31.00
21171;DHT22;10743;52.160;20.910;2023-09-18T13:08:04;40.00;30.70
21171;DHT22;10743;52.160;20.910;2023-09-18T13:10:45;40.00;31.20
21171;DHT22;10743;52.160;20.910;2023-09-18T13:13:21;40.00;31.40
21171;DHT22;10743;52.160;20.910;2023-09-18T13:15:49;40.00;30.70
21171;DHT22;10743;52.160;20.910;2023-09-18T13:18:21;40.00;31.10
21171;DHT22;10743;52.160;20.910;2023-09-18T13:20:51;40.00;31.10
21171;DHT22;10743;52.160;20.910;2023-09-18T13:23:19;39.90;31.00
21171;DHT22;10743;52.160;20.910;2023-09-18T13:25:48;39.80;30.80
21171;DHT22;10743;52.160;20.910;2023-09-18T13:28:15;39.80;31.00
21171;DHT22;10743;52.160;20.910;2023-09-18T13:30:45;39.80;31.40
21171;DHT22;10743;52.160;20.910;2023-09-18T13:33:15;39.80;31.40
21171;DHT22;10743;52.160;20.910;2023-09-18T13:35:44;39.70;31.40
21171;DHT22;10743;52.160;20.910;2023-09-18T13:38:12;39.70;31.10
21171;DHT22;10743;52.160;20.910;2023-09-18T13:40:41;39.70;31.40
21171;DHT22;10743;52.160;20.910;2023-09-18T13:43:09;39.70;31.60
21171;DHT22;10743;52.160;20.910;2023-09-18T13:45:37;39.70;31.30
21171;DHT22;10743;52.160;20.910;2023-09-18T13:48:05;39.70;31.30
21171;DHT22;10743;52.160;20.910;2023-09-18T13:50:34;39.70;30.90
21171;DHT22;10743;52.160;20.910;2023-09-18T13:53:02;39.70;31.20
21171;DHT22;10743;52.160;20.910;2023-09-18T13:55:34;39.70;30.30
21171;DHT22;10743;52.160;20.910;2023-09-18T13:58:02;39.60;30.50
21171;DHT22;10743;52.160;20.910;2023-09-18T14:00:32;39.60;30.60
21171;DHT22;10743;52.160;20.910;2023-09-18T14:02:59;39.60;30.90
21171;DHT22;10743;52.160;20.910;2023-09-18T14:05:27;39.60;30.40
21171;DHT22;10743;52.160;20.910;2023-09-18T14:07:56;39.60;30.90
21171;DHT22;10743;52.160;20.910;2023-09-18T14:10:27;39.70;30.50
21171;DHT22;10743;52.160;20.910;2023-09-18T14:12:55;39.60;30.70
21171;DHT22;10743;52.160;20.910;2023-09-18T14:15:22;39.60;30.70
21171;DHT22;10743;52.160;20.910;2023-09-18T14:17:49;39.60;30.70
21171;DHT22;10743;52.160;20.910;2023-09-18T14:20:16;39.60;30.80
21171;DHT22;10743;52.160;20.910;2023-09-18T14:22:46;39.60;30.50
21171;DHT22;10743;52.160;20.910;2023-09-18T14:25:17;39.60;30.80
21171;DHT22;10743;52.160;20.910;2023-09-18T14:27:46;39.60;30.30
21171;DHT22;10743;52.160;20.910;2023-09-18T14:30:14;39.60;30.50
21171;DHT22;10743;52.160;20.910;2023-09-18T14:32:41;39.60;30.50
21171;DHT22;10743;52.160;20.910;2023-09-18T14:35:09;39.60;30.60
21171;DHT22;10743;52.160;20.910;2023-09-18T14:37:37;39.50;30.80
21171;DHT22;10743;52.160;20.910;2023-09-18T14:40:05;39.60;30.70
21171;DHT22;10743;52.160;20.910;2023-09-18T14:42:32;39.50;30.60
21171;DHT22;10743;52.160;20.910;2023-09-18T14:45:00;39.60;30.80
21171;DHT22;10743;52.160;20.910;2023-09-18T14:47:29;39.50;31.30
21171;DHT22;10743;52.160;20.910;2023-09-18T14:49:56;39.50;31.10
21171;DHT22;10743;52.160;20.910;2023-09-18T14:52:25;39.40;30.90
21171;DHT22;10743;52.160;20.910;2023-09-18T14:54:53;39.40;31.00
21171;DHT22;10743;52.160;20.910;2023-09-18T14:57:20;39.40;31.00
21171;DHT22;10743;52.160;20.910;2023-09-18T14:59:47;39.40;31.20
21171;DHT22;10743;52.160;20.910;2023-09-18T15:02:15;39.30;31.20
21171;DHT22;10743;52.160;20.910;2023-09-18T15:04:45;39.30;31.50
21171;DHT22;10743;52.160;20.910;2023-09-18T15:07:12;39.30;32.20
21171;DHT22;10743;52.160;20.910;2023-09-18T15:09:40;39.30;31.80
21171;DHT22;10743;52.160;20.910;2023-09-18T15:12:07;39.20;31.70
21171;DHT22;10743;52.160;20.910;2023-09-18T15:14:35;39.20;32.00
21171;DHT22;10743;52.160;20.910;2023-09-18T15:17:03;39.20;32.10
21171;DHT22;10743;52.160;20.910;2023-09-18T15:19:30;39.20;32.10
21171;DHT22;10743;52.160;20.910;2023-09-18T15:21:58;39.20;32.50
21171;DHT22;10743;52.160;20.910;2023-09-18T15:24:26;39.10;32.90
21171;DHT22;10743;52.160;20.910;2023-09-18T15:26:53;39.10;32.50
21171;DHT22;10743;52.160;20.910;2023-09-18T15:29:20;39.10;32.60
21171;DHT22;10743;52.160;20.910;2023-09-18T15:31:48;39.00;33.30
21171;DHT22;10743;52.160;20.910;2023-09-18T15:34:15;39.00;32.70
21171;DHT22;10743;52.160;20.910;2023-09-18T15:36:43;38.90;33.00
21171;DHT22;10743;52.160;20.910;2023-09-18T15:39:10;38.90;33.20
21171;DHT22;10743;52.160;20.910;2023-09-18T15:41:37;38.90;33.20